createdAt,value
2018-07-24T00:00:09.430Z,22.90
2018-07-24T00:03:11.484Z,22.88
2018-07-24T00:06:17.568Z,22.86
2018-07-24T00:09:20.867Z,22.82
2018-07-24T00:12:22.937Z,22.77
2018-07-24T00:15:25.027Z,22.76
2018-07-24T00:18:29.114Z,22.73
2018-07-24T00:21:31.248Z,22.66
2018-07-24T00:24:33.360Z,22.61
2018-07-24T00:27:35.299Z,22.55
2018-07-24T00:30:37.372Z,22.52
2018-07-24T00:33:39.476Z,22.49
2018-07-24T00:36:41.544Z,22.42
2018-07-24T00:39:43.582Z,22.40
2018-07-24T00:42:45.546Z,22.40
2018-07-24T00:45:47.623Z,22.37
2018-07-24T00:48:50.793Z,22.35
2018-07-24T00:51:52.743Z,22.34
2018-07-24T00:54:54.887Z,22.30
2018-07-24T00:57:56.918Z,22.22
2018-07-24T01:00:58.939Z,22.18
2018-07-24T01:04:01.157Z,22.16
2018-07-24T01:07:03.302Z,22.12
2018-07-24T01:10:06.306Z,22.04
2018-07-24T01:13:08.335Z,21.93
2018-07-24T01:16:10.399Z,21.99
2018-07-24T01:19:12.479Z,22.03
2018-07-24T01:22:14.635Z,22.02
2018-07-24T01:25:16.713Z,22.01
2018-07-24T01:28:18.726Z,22.02
2018-07-24T01:31:20.869Z,21.97
2018-07-24T01:34:22.946Z,21.99
2018-07-24T01:37:24.853Z,21.96
2018-07-24T01:40:26.966Z,21.95
2018-07-24T01:43:29.040Z,21.92
2018-07-24T01:46:31.121Z,21.90
2018-07-24T01:49:33.255Z,21.86
2018-07-24T01:52:35.319Z,21.75
2018-07-24T01:55:37.410Z,21.66
2018-07-24T01:58:39.355Z,21.56
2018-07-24T02:01:42.164Z,21.44
2018-07-24T02:04:44.319Z,21.38
2018-07-24T02:07:46.302Z,21.35
2018-07-24T02:10:48.391Z,21.34
2018-07-24T02:13:51.203Z,21.30
2018-07-24T02:16:53.505Z,21.30
2018-07-24T02:19:55.451Z,21.26
2018-07-24T02:22:57.657Z,21.25
2018-07-24T02:25:59.656Z,21.17
2018-07-24T02:29:01.731Z,21.14
2018-07-24T02:32:12.128Z,21.12
2018-07-24T02:35:14.451Z,21.20
2018-07-24T02:38:16.580Z,21.19
2018-07-24T02:41:18.715Z,21.14
2018-07-24T02:44:21.910Z,21.13
2018-07-24T02:47:24.169Z,21.15
2018-07-24T02:50:26.280Z,21.15
2018-07-24T02:53:28.491Z,21.14
2018-07-24T02:56:30.642Z,21.09
2018-07-24T02:59:32.659Z,21.06
2018-07-24T03:02:34.824Z,21.02
2018-07-24T03:05:37.804Z,20.97
2018-07-24T03:08:40.130Z,20.98
2018-07-24T03:11:42.479Z,21.01
2018-07-24T03:14:45.889Z,21.05
2018-07-24T03:17:48.056Z,21.03
2018-07-24T03:20:50.147Z,21.06
2018-07-24T03:23:52.942Z,21.08
2018-07-24T03:26:55.075Z,21.09
2018-07-24T03:29:57.129Z,21.10
2018-07-24T03:32:59.212Z,21.10
2018-07-24T03:36:01.339Z,21.01
2018-07-24T03:39:06.695Z,20.93
2018-07-24T03:42:10.330Z,20.93
2018-07-24T03:45:13.489Z,20.87
2018-07-24T03:48:15.678Z,20.82
2018-07-24T03:51:17.766Z,20.81
2018-07-24T03:54:19.883Z,20.80
2018-07-24T03:57:22.900Z,20.79
2018-07-24T04:00:25.027Z,20.78
2018-07-24T04:03:27.173Z,20.76
2018-07-24T04:06:29.259Z,20.76
2018-07-24T04:09:31.396Z,20.78
2018-07-24T04:12:33.536Z,20.79
2018-07-24T04:15:35.681Z,20.78
2018-07-24T04:18:44.018Z,20.79
2018-07-24T04:21:46.200Z,20.85
2018-07-24T04:24:48.371Z,20.89
2018-07-24T04:27:50.583Z,20.91
2018-07-24T04:30:59.109Z,20.77
2018-07-24T04:34:01.173Z,20.52
2018-07-24T04:37:03.258Z,20.37
2018-07-24T04:40:10.256Z,20.30
2018-07-24T04:43:12.511Z,20.24
2018-07-24T04:46:14.719Z,20.28
2018-07-24T04:49:16.904Z,20.39
2018-07-24T04:52:19.021Z,20.45
2018-07-24T04:55:22.139Z,20.51
2018-07-24T04:58:24.143Z,20.57
2018-07-24T05:01:27.354Z,20.56
2018-07-24T05:04:29.552Z,20.56
2018-07-24T05:07:31.619Z,20.54
2018-07-24T05:10:33.819Z,20.41
2018-07-24T05:13:35.871Z,20.31
2018-07-24T05:16:38.172Z,20.40
2018-07-24T05:19:40.383Z,20.34
2018-07-24T05:22:42.953Z,20.50
2018-07-24T05:25:44.982Z,20.70
2018-07-24T05:28:47.155Z,20.66
2018-07-24T05:31:49.251Z,20.84
2018-07-24T05:34:51.754Z,21.02
2018-07-24T05:37:53.851Z,21.07
2018-07-24T05:40:55.965Z,21.20
2018-07-24T05:43:58.083Z,21.41
2018-07-24T05:47:00.055Z,21.52
2018-07-24T05:50:02.190Z,21.71
2018-07-24T05:53:05.486Z,21.79
2018-07-24T05:56:08.623Z,21.89
2018-07-24T05:59:10.683Z,22.01
2018-07-24T06:02:12.922Z,22.04
2018-07-24T06:05:14.879Z,22.11
2018-07-24T06:08:16.980Z,22.14
2018-07-24T06:11:19.071Z,22.17
2018-07-24T06:14:21.204Z,22.22
2018-07-24T06:17:23.643Z,22.37
2018-07-24T06:20:25.582Z,22.54
2018-07-24T06:23:27.644Z,22.69
2018-07-24T06:26:29.701Z,22.80
2018-07-24T06:29:31.696Z,22.90
2018-07-24T06:32:33.789Z,22.93
2018-07-24T06:35:35.886Z,23.00
2018-07-24T06:38:39.023Z,23.07
2018-07-24T06:41:41.582Z,23.17
2018-07-24T06:44:43.652Z,23.26
2018-07-24T06:47:45.746Z,23.31
2018-07-24T06:50:47.663Z,23.36
2018-07-24T06:53:49.755Z,23.49
2018-07-24T06:56:51.806Z,23.54
2018-07-24T06:59:54.923Z,23.52
2018-07-24T07:02:57.038Z,23.51
2018-07-24T07:05:59.143Z,23.65
2018-07-24T07:09:04.247Z,23.76
2018-07-24T07:12:06.373Z,23.91
2018-07-24T07:15:08.759Z,24.14
2018-07-24T07:18:10.796Z,24.26
2018-07-24T07:21:13.906Z,24.44
2018-07-24T07:24:15.927Z,24.54
2018-07-24T07:27:17.935Z,24.46
2018-07-24T07:30:20.067Z,24.58
2018-07-24T07:33:22.186Z,24.67
2018-07-24T07:36:24.258Z,24.73
2018-07-24T07:39:26.434Z,24.73
2018-07-24T07:42:28.509Z,24.94
2018-07-24T07:45:30.558Z,25.16
2018-07-24T07:48:32.760Z,25.36
2018-07-24T07:51:36.950Z,25.53
2018-07-24T07:54:38.893Z,25.53
2018-07-24T07:57:41.018Z,25.72
2018-07-24T08:00:43.126Z,25.87
2018-07-24T08:03:45.213Z,26.03
2018-07-24T08:06:47.326Z,26.04
2018-07-24T08:09:50.384Z,26.12
2018-07-24T08:12:52.449Z,26.12
2018-07-24T08:15:54.638Z,26.02
2018-07-24T08:18:56.775Z,26.09
2018-07-24T08:21:58.891Z,26.39
2018-07-24T08:25:00.914Z,26.60
2018-07-24T08:28:03.030Z,26.55
2018-07-24T08:31:05.907Z,26.77
2018-07-24T08:34:08.077Z,26.96
2018-07-24T08:37:10.156Z,27.24
2018-07-24T08:40:12.230Z,27.31
2018-07-24T08:43:14.372Z,27.49
2018-07-24T08:46:16.493Z,27.56
2018-07-24T08:49:18.620Z,27.50
2018-07-24T08:52:20.584Z,27.52
2018-07-24T08:55:22.974Z,27.58
2018-07-24T08:58:24.586Z,27.77
2018-07-24T09:01:26.739Z,27.97
2018-07-24T09:04:28.772Z,28.12
2018-07-24T09:07:30.820Z,28.18
2018-07-24T09:10:32.986Z,28.25
2018-07-24T09:13:35.044Z,28.25
2018-07-24T09:16:38.742Z,28.19
2018-07-24T09:19:40.835Z,28.22
2018-07-24T09:22:42.891Z,28.34
2018-07-24T09:25:45.015Z,28.43
2018-07-24T09:28:47.032Z,28.70
2018-07-24T09:31:49.187Z,28.83
2018-07-24T09:34:51.135Z,29.12
2018-07-24T09:37:53.149Z,29.27
2018-07-24T09:40:55.230Z,29.38
2018-07-24T09:43:57.259Z,29.68
2018-07-24T09:46:59.527Z,29.50
2018-07-24T09:50:01.645Z,29.76
2018-07-24T09:53:03.687Z,30.01
2018-07-24T09:56:06.686Z,30.07
2018-07-24T09:59:08.783Z,29.85
2018-07-24T10:02:11.342Z,29.56
2018-07-24T10:05:13.496Z,29.73
2018-07-24T10:08:15.619Z,29.91
2018-07-24T10:11:17.749Z,30.23
2018-07-24T10:14:19.667Z,30.35
2018-07-24T10:17:21.781Z,30.43
2018-07-24T10:20:23.861Z,30.31
2018-07-24T10:23:25.931Z,30.38
2018-07-24T10:26:28.108Z,30.21
2018-07-24T10:29:30.283Z,30.22
2018-07-24T10:32:32.366Z,30.22
2018-07-24T10:35:34.405Z,30.09
2018-07-24T10:38:37.284Z,30.41
2018-07-24T10:41:39.351Z,30.42
2018-07-24T10:44:41.331Z,30.50
2018-07-24T10:47:43.425Z,30.55
2018-07-24T10:50:45.433Z,30.42
2018-07-24T10:53:47.621Z,30.21
2018-07-24T10:56:49.724Z,30.29
2018-07-24T10:59:51.814Z,30.71
2018-07-24T11:02:53.953Z,30.88
2018-07-24T11:05:56.118Z,31.07
2018-07-24T11:08:58.171Z,31.08
2018-07-24T11:12:00.164Z,31.24
2018-07-24T11:15:02.405Z,31.43
2018-07-24T11:18:04.571Z,31.49
2018-07-24T11:21:06.768Z,31.65
2018-07-24T11:24:08.858Z,31.47
2018-07-24T11:27:10.884Z,31.24
2018-07-24T11:30:12.991Z,31.36
2018-07-24T11:33:15.135Z,31.63
2018-07-24T11:36:17.172Z,31.89
2018-07-24T11:39:20.251Z,31.95
2018-07-24T11:42:22.608Z,31.86
2018-07-24T11:45:24.631Z,32.08
2018-07-24T11:48:26.770Z,32.05
2018-07-24T11:51:28.824Z,32.22
2018-07-24T11:54:30.979Z,32.23
2018-07-24T11:57:33.024Z,32.20
2018-07-24T12:00:35.185Z,32.25
2018-07-24T12:03:37.313Z,32.44
2018-07-24T12:06:40.399Z,32.50
2018-07-24T12:09:42.459Z,32.07
2018-07-24T12:12:44.378Z,32.34
2018-07-24T12:15:46.495Z,32.35
2018-07-24T12:18:48.553Z,32.29
2018-07-24T12:21:50.647Z,32.39
2018-07-24T12:24:52.722Z,32.55
2018-07-24T12:27:54.769Z,32.51
2018-07-24T12:30:56.813Z,32.48
2018-07-24T12:33:58.920Z,32.49
2018-07-24T12:37:01.013Z,32.66
2018-07-24T12:40:03.262Z,32.83
2018-07-24T12:43:06.480Z,32.99
2018-07-24T12:46:08.541Z,32.97
2018-07-24T12:49:10.719Z,32.90
2018-07-24T12:52:12.678Z,33.04
2018-07-24T12:55:14.801Z,32.94
2018-07-24T12:58:16.918Z,32.86
2018-07-24T13:01:19.015Z,33.11
2018-07-24T13:04:21.062Z,32.91
2018-07-24T13:07:23.135Z,33.15
2018-07-24T13:10:25.544Z,33.16
2018-07-24T13:13:27.643Z,33.09
2018-07-24T13:16:30.839Z,33.08
2018-07-24T13:19:33.033Z,33.25
2018-07-24T13:22:35.922Z,33.47
2018-07-24T13:25:38.025Z,33.56
2018-07-24T13:28:40.042Z,33.55
2018-07-24T13:31:42.252Z,33.55
2018-07-24T13:34:46.572Z,33.65
2018-07-24T13:37:48.631Z,33.83
2018-07-24T13:40:50.709Z,33.83
2018-07-24T13:43:52.949Z,33.43
2018-07-24T13:46:55.057Z,33.52
2018-07-24T13:49:57.089Z,33.64
2018-07-24T13:52:59.131Z,33.63
2018-07-24T13:56:01.260Z,33.49
2018-07-24T13:59:03.440Z,33.31
2018-07-24T14:02:07.127Z,33.33
2018-07-24T14:05:09.192Z,33.60
2018-07-24T14:08:11.264Z,33.67
2018-07-24T14:11:13.447Z,33.77
2018-07-24T14:14:15.643Z,33.64
2018-07-24T14:17:17.661Z,33.91
2018-07-24T14:20:19.883Z,33.49
2018-07-24T14:23:21.850Z,33.73
2018-07-24T14:26:23.881Z,33.78
2018-07-24T14:29:26.046Z,33.90
2018-07-24T14:32:28.129Z,34.11
2018-07-24T14:35:30.243Z,34.01
2018-07-24T14:38:32.366Z,34.26
2018-07-24T14:41:34.439Z,34.36
2018-07-24T14:44:36.814Z,34.29
2018-07-24T14:47:52.622Z,34.13
2018-07-24T14:50:55.522Z,34.01
2018-07-24T14:53:57.528Z,33.79
2018-07-24T14:56:59.639Z,33.78
2018-07-24T15:00:01.753Z,34.12
2018-07-24T15:03:03.694Z,34.28
2018-07-24T15:06:06.732Z,34.41
2018-07-24T15:09:10.580Z,34.60
2018-07-24T15:12:12.645Z,34.64
2018-07-24T15:15:14.813Z,34.68
2018-07-24T15:18:16.938Z,34.33
2018-07-24T15:21:19.016Z,34.14
2018-07-24T15:24:21.237Z,34.25
2018-07-24T15:27:23.326Z,34.44
2018-07-24T15:30:25.420Z,34.18
2018-07-24T15:33:27.518Z,34.17
2018-07-24T15:36:29.661Z,34.25
2018-07-24T15:39:31.680Z,34.55
2018-07-24T15:42:33.639Z,34.56
2018-07-24T15:45:35.995Z,34.52
2018-07-24T15:48:38.227Z,34.64
2018-07-24T15:51:40.369Z,34.59
2018-07-24T15:54:42.692Z,34.33
2018-07-24T15:57:45.018Z,34.33
2018-07-24T16:00:47.025Z,34.24
2018-07-24T16:03:51.024Z,34.40
2018-07-24T16:06:53.172Z,34.48
2018-07-24T16:09:55.231Z,34.39
2018-07-24T16:12:57.238Z,34.41
2018-07-24T16:15:59.399Z,34.11
2018-07-24T16:19:01.703Z,33.95
2018-07-24T16:22:03.867Z,33.84
2018-07-24T16:25:06.038Z,33.94
2018-07-24T16:28:08.096Z,34.02
2018-07-24T16:31:10.158Z,33.99
2018-07-24T16:34:12.251Z,33.88
2018-07-24T16:37:14.408Z,33.69
2018-07-24T16:40:16.398Z,33.50
2018-07-24T16:43:18.503Z,33.51
2018-07-24T16:46:20.527Z,33.56
2018-07-24T16:49:22.658Z,33.67
2018-07-24T16:52:24.734Z,33.64
2018-07-24T16:55:26.807Z,33.64
2018-07-24T16:58:29.019Z,33.64
2018-07-24T17:01:31.076Z,33.60
2018-07-24T17:04:33.211Z,33.74
2018-07-24T17:07:37.354Z,33.69
2018-07-24T17:10:39.334Z,33.71
2018-07-24T17:13:41.465Z,33.56
2018-07-24T17:16:43.487Z,33.44
2018-07-24T17:19:45.610Z,33.40
2018-07-24T17:22:47.751Z,33.38
2018-07-24T17:25:49.797Z,33.30
2018-07-24T17:28:51.860Z,33.29
2018-07-24T17:31:54.058Z,33.45
2018-07-24T17:34:56.130Z,33.49
2018-07-24T17:37:58.083Z,33.35
2018-07-24T17:41:00.292Z,33.31
2018-07-24T17:44:07.236Z,33.19
2018-07-24T17:47:09.287Z,33.23
2018-07-24T17:50:11.459Z,33.25
2018-07-24T17:53:13.771Z,33.20
2018-07-24T17:56:15.950Z,33.10
2018-07-24T17:59:18.052Z,33.02
2018-07-24T18:02:20.214Z,33.05
2018-07-24T18:05:22.155Z,33.09
2018-07-24T18:08:24.275Z,33.00
2018-07-24T18:11:26.462Z,32.93
2018-07-24T18:14:28.618Z,32.94
2018-07-24T18:17:31.719Z,32.91
2018-07-24T18:20:33.790Z,32.85
2018-07-24T18:23:37.550Z,32.84
2018-07-24T18:26:39.691Z,32.78
2018-07-24T18:29:41.743Z,32.73
2018-07-24T18:32:43.903Z,32.69
2018-07-24T18:35:45.991Z,32.61
2018-07-24T18:38:48.084Z,32.50
2018-07-24T18:41:50.096Z,32.43
2018-07-24T18:44:52.184Z,32.37
2018-07-24T18:47:54.317Z,32.29
2018-07-24T18:50:56.391Z,32.16
2018-07-24T18:53:58.377Z,32.01
2018-07-24T18:57:01.519Z,31.87
2018-07-24T19:00:04.416Z,31.64
2018-07-24T19:03:06.612Z,31.47
2018-07-24T19:06:08.787Z,31.31
2018-07-24T19:09:11.801Z,31.21
2018-07-24T19:12:13.971Z,31.05
2018-07-24T19:15:17.067Z,30.86
2018-07-24T19:18:19.243Z,30.73
2018-07-24T19:21:21.275Z,30.63
2018-07-24T19:24:23.236Z,30.46
2018-07-24T19:27:25.344Z,30.31
2018-07-24T19:30:27.537Z,30.14
2018-07-24T19:33:30.774Z,30.01
2018-07-24T19:36:32.953Z,29.89
2018-07-24T19:39:35.111Z,29.75
2018-07-24T19:42:37.195Z,29.68
2018-07-24T19:45:40.179Z,29.53
2018-07-24T19:48:42.482Z,29.43
2018-07-24T19:51:44.604Z,29.34
2018-07-24T19:54:46.687Z,29.14
2018-07-24T19:57:48.806Z,29.00
2018-07-24T20:00:50.975Z,28.96
2018-07-24T20:03:54.099Z,28.91
2018-07-24T20:06:57.225Z,28.81
2018-07-24T20:09:59.339Z,28.70
2018-07-24T20:13:01.586Z,28.61
2018-07-24T20:16:03.732Z,28.51
2018-07-24T20:19:05.956Z,28.44
2018-07-24T20:22:08.195Z,28.34
2018-07-24T20:25:11.343Z,28.23
2018-07-24T20:28:13.330Z,28.11
2018-07-24T20:31:15.606Z,27.97
2018-07-24T20:34:17.930Z,27.73
2018-07-24T20:37:19.964Z,27.63
2018-07-24T20:40:22.112Z,27.44
2018-07-24T20:43:24.197Z,27.38
2018-07-24T20:46:26.337Z,27.35
2018-07-24T20:49:28.311Z,27.38
2018-07-24T20:52:30.290Z,27.42
2018-07-24T20:55:32.400Z,27.33
2018-07-24T20:58:34.483Z,27.38
2018-07-24T21:01:36.648Z,27.42
2018-07-24T21:04:38.700Z,27.44
2018-07-24T21:07:41.517Z,27.48
2018-07-24T21:10:43.539Z,27.54
2018-07-24T21:13:45.659Z,27.54
2018-07-24T21:16:47.744Z,27.57
2018-07-24T21:19:49.888Z,27.59
2018-07-24T21:22:51.943Z,27.52
2018-07-24T21:25:54.063Z,27.39
2018-07-24T21:28:56.188Z,27.34
2018-07-24T21:32:00.171Z,27.33
2018-07-24T21:35:02.289Z,27.29
2018-07-24T21:38:04.377Z,27.25
2018-07-24T21:41:06.696Z,27.22
2018-07-24T21:44:08.871Z,27.16
2018-07-24T21:47:11.020Z,27.05
2018-07-24T21:50:13.179Z,27.00
2018-07-24T21:53:15.232Z,26.91
2018-07-24T21:56:17.368Z,26.85
2018-07-24T21:59:19.499Z,26.78
2018-07-24T22:02:21.624Z,26.76
2018-07-24T22:05:23.638Z,26.60
2018-07-24T22:08:25.621Z,26.53
2018-07-24T22:11:32.635Z,26.45
2018-07-24T22:14:35.722Z,26.39
2018-07-24T22:17:37.769Z,26.31
2018-07-24T22:20:39.831Z,26.27
2018-07-24T22:23:42.847Z,26.26
2018-07-24T22:26:45.020Z,26.14
2018-07-24T22:29:47.112Z,26.05
2018-07-24T22:32:49.144Z,26.03
2018-07-24T22:35:51.229Z,26.05
2018-07-24T22:38:53.190Z,26.06
2018-07-24T22:41:55.232Z,26.07
2018-07-24T22:44:57.231Z,25.99
2018-07-24T22:48:00.289Z,25.93
2018-07-24T22:51:02.435Z,25.91
2018-07-24T22:54:04.460Z,25.87
2018-07-24T22:57:06.551Z,25.83
2018-07-24T23:00:08.523Z,25.75
2018-07-24T23:03:11.056Z,25.73
2018-07-24T23:06:13.104Z,25.70
2018-07-24T23:09:15.062Z,25.67
2018-07-24T23:12:17.089Z,25.65
2018-07-24T23:15:19.156Z,25.59
2018-07-24T23:18:21.294Z,25.44
2018-07-24T23:21:23.383Z,25.33
2018-07-24T23:24:26.459Z,25.30
2018-07-24T23:27:28.519Z,25.27
2018-07-24T23:30:36.427Z,25.26
2018-07-24T23:33:38.519Z,25.22
2018-07-24T23:36:41.486Z,25.15
2018-07-24T23:39:43.576Z,25.01
2018-07-24T23:42:45.647Z,24.83
2018-07-24T23:45:47.700Z,24.80
2018-07-24T23:48:49.800Z,24.84
2018-07-24T23:51:51.814Z,24.90
2018-07-24T23:54:53.913Z,24.91
2018-07-24T23:57:56.151Z,24.88
